sensor_id;sensor_type;location;lat;lon;timestamp;pressure;altitude;pressure_sealevel;temperature;humidity
46614;BME280;32338;50.430;6.806;2022-08-04T00:02:03;96546.03;;;19.96;78.45
46614;BME280;32338;50.430;6.806;2022-08-04T00:04:36;96539.56;;;19.92;79.50
46614;BME280;32338;50.430;6.806;2022-08-04T00:07:07;96537.94;;;19.91;80.66
46614;BME280;32338;50.430;6.806;2022-08-04T00:09:43;96537.13;;;19.90;80.75
46614;BME280;32338;50.430;6.806;2022-08-04T00:12:15;96535.16;;;19.81;80.60
46614;BME280;32338;50.430;6.806;2022-08-04T00:14:46;96523.84;;;19.79;79.83
46614;BME280;32338;50.430;6.806;2022-08-04T00:17:13;96525.75;;;19.78;79.15
46614;BME280;32338;50.430;6.806;2022-08-04T00:19:47;96528.34;;;19.73;80.62
46614;BME280;32338;50.430;6.806;2022-08-04T00:22:16;96527.28;;;19.74;81.20
46614;BME280;32338;50.430;6.806;2022-08-04T00:24:46;96523.75;;;19.68;82.05
46614;BME280;32338;50.430;6.806;2022-08-04T00:27:13;96526.44;;;19.68;82.25
46614;BME280;32338;50.430;6.806;2022-08-04T00:29:41;96535.50;;;19.62;81.93
46614;BME280;32338;50.430;6.806;2022-08-04T00:32:08;96533.50;;;19.52;82.24
46614;BME280;32338;50.430;6.806;2022-08-04T00:34:35;96532.56;;;19.41;81.04
46614;BME280;32338;50.430;6.806;2022-08-04T00:37:04;96532.84;;;19.40;82.48
46614;BME280;32338;50.430;6.806;2022-08-04T00:39:31;96536.88;;;19.42;82.79
46614;BME280;32338;50.430;6.806;2022-08-04T00:42:17;96532.03;;;19.39;82.80
46614;BME280;32338;50.430;6.806;2022-08-04T00:44:59;96519.38;;;19.35;83.16
46614;BME280;32338;50.430;6.806;2022-08-04T00:47:38;96531.41;;;19.32;82.76
46614;BME280;32338;50.430;6.806;2022-08-04T00:50:09;96530.34;;;19.33;83.44
46614;BME280;32338;50.430;6.806;2022-08-04T00:52:53;96534.56;;;19.29;83.63
46614;BME280;32338;50.430;6.806;2022-08-04T00:55:40;96535.56;;;19.23;83.58
46614;BME280;32338;50.430;6.806;2022-08-04T00:58:22;96532.84;;;19.18;84.71
46614;BME280;32338;50.430;6.806;2022-08-04T01:00:58;96531.09;;;19.06;84.98
46614;BME280;32338;50.430;6.806;2022-08-04T01:03:41;96525.66;;;19.01;86.04
46614;BME280;32338;50.430;6.806;2022-08-04T01:06:21;96532.59;;;18.80;86.60
46614;BME280;32338;50.430;6.806;2022-08-04T01:12:09;96533.09;;;18.60;88.54
46614;BME280;32338;50.430;6.806;2022-08-04T01:15:04;96523.69;;;18.74;88.30
46614;BME280;32338;50.430;6.806;2022-08-04T01:17:52;96525.94;;;18.83;87.36
46614;BME280;32338;50.430;6.806;2022-08-04T01:20:24;96519.38;;;18.90;87.44
46614;BME280;32338;50.430;6.806;2022-08-04T01:23:22;96529.66;;;18.82;87.28
46614;BME280;32338;50.430;6.806;2022-08-04T01:26:22;96515.47;;;18.81;87.24
46614;BME280;32338;50.430;6.806;2022-08-04T01:29:05;96522.78;;;18.86;85.65
46614;BME280;32338;50.430;6.806;2022-08-04T01:34:27;96522.78;;;18.86;86.83
46614;BME280;32338;50.430;6.806;2022-08-04T01:36:58;96520.03;;;18.80;87.44
46614;BME280;32338;50.430;6.806;2022-08-04T01:39:33;96519.72;;;18.77;88.13
46614;BME280;32338;50.430;6.806;2022-08-04T01:42:06;96519.88;;;18.70;88.31
46614;BME280;32338;50.430;6.806;2022-08-04T01:44:36;96528.16;;;18.69;88.62
46614;BME280;32338;50.430;6.806;2022-08-04T01:47:03;96521.16;;;18.68;87.76
46614;BME280;32338;50.430;6.806;2022-08-04T01:49:31;96516.91;;;18.67;88.00
46614;BME280;32338;50.430;6.806;2022-08-04T01:51:58;96515.75;;;18.62;88.38
46614;BME280;32338;50.430;6.806;2022-08-04T01:54:25;96517.88;;;18.60;88.30
46614;BME280;32338;50.430;6.806;2022-08-04T01:56:53;96509.53;;;18.57;88.76
46614;BME280;32338;50.430;6.806;2022-08-04T01:59:20;96516.53;;;18.41;89.59
46614;BME280;32338;50.430;6.806;2022-08-04T02:01:49;96517.75;;;18.33;91.22
46614;BME280;32338;50.430;6.806;2022-08-04T02:04:17;96510.94;;;18.25;91.20
46614;BME280;32338;50.430;6.806;2022-08-04T02:07:00;96512.13;;;18.18;92.78
46614;BME280;32338;50.430;6.806;2022-08-04T02:09:42;96507.28;;;18.14;92.97
46614;BME280;32338;50.430;6.806;2022-08-04T02:12:21;96508.28;;;18.25;91.42
46614;BME280;32338;50.430;6.806;2022-08-04T02:14:56;96503.50;;;18.10;92.39
46614;BME280;32338;50.430;6.806;2022-08-04T02:17:29;96507.13;;;18.21;92.24
46614;BME280;32338;50.430;6.806;2022-08-04T02:20:03;96505.50;;;18.20;91.90
46614;BME280;32338;50.430;6.806;2022-08-04T02:22:33;96505.03;;;18.23;92.30
46614;BME280;32338;50.430;6.806;2022-08-04T02:25:07;96501.06;;;18.26;91.21
46614;BME280;32338;50.430;6.806;2022-08-04T02:27:45;96495.63;;;18.21;91.53
46614;BME280;32338;50.430;6.806;2022-08-04T02:30:16;96500.66;;;18.17;92.06
46614;BME280;32338;50.430;6.806;2022-08-04T02:32:45;96494.50;;;18.17;91.98
46614;BME280;32338;50.430;6.806;2022-08-04T02:35:17;96497.91;;;18.12;92.97
46614;BME280;32338;50.430;6.806;2022-08-04T02:37:47;96498.94;;;18.11;92.41
46614;BME280;32338;50.430;6.806;2022-08-04T02:40:19;96497.00;;;18.06;92.06
46614;BME280;32338;50.430;6.806;2022-08-04T02:42:46;96488.09;;;18.01;93.03
46614;BME280;32338;50.430;6.806;2022-08-04T02:45:18;96494.25;;;18.01;93.16
46614;BME280;32338;50.430;6.806;2022-08-04T02:47:47;96485.34;;;17.95;93.61
46614;BME280;32338;50.430;6.806;2022-08-04T02:50:17;96486.94;;;17.96;93.78
46614;BME280;32338;50.430;6.806;2022-08-04T02:52:46;96488.72;;;17.91;93.89
46614;BME280;32338;50.430;6.806;2022-08-04T02:55:16;96493.72;;;17.87;93.99
46614;BME280;32338;50.430;6.806;2022-08-04T02:57:44;96491.03;;;17.87;93.00
46614;BME280;32338;50.430;6.806;2022-08-04T03:00:15;96491.22;;;17.80;93.87
46614;BME280;32338;50.430;6.806;2022-08-04T03:02:54;96482.63;;;17.78;93.94
46614;BME280;32338;50.430;6.806;2022-08-04T03:05:31;96484.72;;;17.76;94.56
46614;BME280;32338;50.430;6.806;2022-08-04T03:08:28;96481.94;;;17.71;95.10
46614;BME280;32338;50.430;6.806;2022-08-04T03:11:16;96479.44;;;17.64;94.80
46614;BME280;32338;50.430;6.806;2022-08-04T03:14:09;96482.81;;;17.60;95.81
46614;BME280;32338;50.430;6.806;2022-08-04T03:17:02;96477.41;;;17.55;97.20
46614;BME280;32338;50.430;6.806;2022-08-04T03:22:51;96477.31;;;17.21;98.49
46614;BME280;32338;50.430;6.806;2022-08-04T03:29:21;96479.47;;;17.07;100.00
46614;BME280;32338;50.430;6.806;2022-08-04T03:32:22;96480.44;;;17.17;99.15
46614;BME280;32338;50.430;6.806;2022-08-04T03:35:11;96483.00;;;17.24;97.92
46614;BME280;32338;50.430;6.806;2022-08-04T03:37:59;96485.41;;;17.26;97.59
46614;BME280;32338;50.430;6.806;2022-08-04T03:40:38;96482.16;;;17.24;98.31
46614;BME280;32338;50.430;6.806;2022-08-04T03:46:41;96480.88;;;17.26;97.62
46614;BME280;32338;50.430;6.806;2022-08-04T03:52:26;96474.91;;;17.19;97.90
46614;BME280;32338;50.430;6.806;2022-08-04T03:55:38;96472.69;;;17.16;98.23
46614;BME280;32338;50.430;6.806;2022-08-04T04:01:23;96477.59;;;17.07;99.46
46614;BME280;32338;50.430;6.806;2022-08-04T04:04:23;96472.50;;;17.06;99.09
46614;BME280;32338;50.430;6.806;2022-08-04T04:07:05;96479.34;;;17.01;99.77
46614;BME280;32338;50.430;6.806;2022-08-04T04:10:02;96472.06;;;16.97;100.00
46614;BME280;32338;50.430;6.806;2022-08-04T04:15:49;96476.34;;;16.98;100.00
46614;BME280;32338;50.430;6.806;2022-08-04T04:18:23;96475.53;;;16.97;100.00
46614;BME280;32338;50.430;6.806;2022-08-04T04:21:05;96476.69;;;17.01;100.00
46614;BME280;32338;50.430;6.806;2022-08-04T04:24:03;96481.69;;;16.98;100.00
46614;BME280;32338;50.430;6.806;2022-08-04T04:26:39;96478.19;;;16.97;100.00
46614;BME280;32338;50.430;6.806;2022-08-04T04:29:23;96484.34;;;16.98;100.00
46614;BME280;32338;50.430;6.806;2022-08-04T04:32:03;96477.38;;;16.97;100.00
46614;BME280;32338;50.430;6.806;2022-08-04T04:34:38;96480.38;;;16.89;100.00
46614;BME280;32338;50.430;6.806;2022-08-04T04:37:18;96476.91;;;16.88;100.00
46614;BME280;32338;50.430;6.806;2022-08-04T04:40:04;96481.09;;;16.84;100.00
46614;BME280;32338;50.430;6.806;2022-08-04T04:42:45;96484.56;;;16.84;100.00
46614;BME280;32338;50.430;6.806;2022-08-04T04:45:32;96482.25;;;16.88;100.00
46614;BME280;32338;50.430;6.806;2022-08-04T04:48:07;96482.38;;;16.81;100.00
46614;BME280;32338;50.430;6.806;2022-08-04T04:50:49;96486.78;;;16.88;100.00
46614;BME280;32338;50.430;6.806;2022-08-04T04:53:26;96481.91;;;16.84;100.00
46614;BME280;32338;50.430;6.806;2022-08-04T04:55:59;96487.59;;;16.76;100.00
46614;BME280;32338;50.430;6.806;2022-08-04T04:58:31;96490.75;;;16.73;100.00
46614;BME280;32338;50.430;6.806;2022-08-04T05:04:06;96496.22;;;16.54;100.00
46614;BME280;32338;50.430;6.806;2022-08-04T05:06:48;96498.53;;;16.63;100.00
46614;BME280;32338;50.430;6.806;2022-08-04T05:09:42;96504.53;;;16.70;100.00
46614;BME280;32338;50.430;6.806;2022-08-04T05:12:29;96501.53;;;16.78;100.00
46614;BME280;32338;50.430;6.806;2022-08-04T05:15:02;96503.00;;;16.86;100.00
46614;BME280;32338;50.430;6.806;2022-08-04T05:17:34;96500.94;;;16.76;100.00
46614;BME280;32338;50.430;6.806;2022-08-04T05:20:05;96494.25;;;16.62;100.00
46614;BME280;32338;50.430;6.806;2022-08-04T05:22:38;96500.84;;;16.47;100.00
46614;BME280;32338;50.430;6.806;2022-08-04T05:25:11;96506.75;;;16.49;100.00
46614;BME280;32338;50.430;6.806;2022-08-04T05:27:43;96504.09;;;16.49;100.00
46614;BME280;32338;50.430;6.806;2022-08-04T05:30:13;96515.47;;;16.57;100.00
46614;BME280;32338;50.430;6.806;2022-08-04T05:32:45;96509.66;;;16.60;100.00
46614;BME280;32338;50.430;6.806;2022-08-04T05:35:18;96506.75;;;16.73;100.00
46614;BME280;32338;50.430;6.806;2022-08-04T05:37:47;96510.69;;;16.94;100.00
46614;BME280;32338;50.430;6.806;2022-08-04T05:40:16;96511.72;;;17.05;100.00
46614;BME280;32338;50.430;6.806;2022-08-04T05:42:45;96509.50;;;17.14;100.00
46614;BME280;32338;50.430;6.806;2022-08-04T05:45:16;96516.06;;;17.23;100.00
46614;BME280;32338;50.430;6.806;2022-08-04T05:47:44;96514.00;;;17.25;100.00
46614;BME280;32338;50.430;6.806;2022-08-04T05:50:12;96505.97;;;17.25;100.00
46614;BME280;32338;50.430;6.806;2022-08-04T05:52:40;96509.53;;;17.31;100.00
46614;BME280;32338;50.430;6.806;2022-08-04T05:55:08;96520.50;;;17.46;100.00
46614;BME280;32338;50.430;6.806;2022-08-04T05:57:38;96512.50;;;17.46;100.00
46614;BME280;32338;50.430;6.806;2022-08-04T06:00:07;96507.81;;;17.54;100.00
46614;BME280;32338;50.430;6.806;2022-08-04T06:02:36;96506.88;;;17.60;100.00
46614;BME280;32338;50.430;6.806;2022-08-04T06:05:05;96499.78;;;17.65;100.00
46614;BME280;32338;50.430;6.806;2022-08-04T06:07:32;96510.69;;;17.64;100.00
46614;BME280;32338;50.430;6.806;2022-08-04T06:10:00;96503.50;;;17.64;100.00
46614;BME280;32338;50.430;6.806;2022-08-04T06:12:33;96504.88;;;17.67;100.00
46614;BME280;32338;50.430;6.806;2022-08-04T06:15:03;96502.84;;;17.74;100.00
46614;BME280;32338;50.430;6.806;2022-08-04T06:17:32;96497.84;;;17.78;100.00
46614;BME280;32338;50.430;6.806;2022-08-04T06:20:04;96498.66;;;17.78;100.00
46614;BME280;32338;50.430;6.806;2022-08-04T06:22:34;96498.19;;;17.81;100.00
46614;BME280;32338;50.430;6.806;2022-08-04T06:25:05;96500.19;;;17.91;100.00
46614;BME280;32338;50.430;6.806;2022-08-04T06:27:34;96499.97;;;17.93;100.00
46614;BME280;32338;50.430;6.806;2022-08-04T06:30:02;96498.53;;;18.02;100.00
46614;BME280;32338;50.430;6.806;2022-08-04T06:32:33;96491.19;;;18.09;100.00
46614;BME280;32338;50.430;6.806;2022-08-04T06:35:14;96499.34;;;18.20;100.00
46614;BME280;32338;50.430;6.806;2022-08-04T06:37:43;96506.97;;;18.28;100.00
46614;BME280;32338;50.430;6.806;2022-08-04T06:40:11;96496.69;;;18.37;100.00
46614;BME280;32338;50.430;6.806;2022-08-04T06:42:38;96510.44;;;18.45;100.00
46614;BME280;32338;50.430;6.806;2022-08-04T06:45:09;96500.13;;;18.54;100.00
46614;BME280;32338;50.430;6.806;2022-08-04T06:47:37;96502.88;;;18.59;100.00
46614;BME280;32338;50.430;6.806;2022-08-04T06:50:06;96510.78;;;18.71;100.00
46614;BME280;32338;50.430;6.806;2022-08-04T06:52:35;96508.56;;;18.85;100.00
46614;BME280;32338;50.430;6.806;2022-08-04T06:55:04;96506.31;;;18.94;100.00
46614;BME280;32338;50.430;6.806;2022-08-04T06:57:34;96513.91;;;19.02;100.00
46614;BME280;32338;50.430;6.806;2022-08-04T07:00:05;96509.72;;;19.11;100.00
46614;BME280;32338;50.430;6.806;2022-08-04T07:02:38;96517.66;;;19.23;100.00
46614;BME280;32338;50.430;6.806;2022-08-04T07:05:06;96521.50;;;19.33;100.00
46614;BME280;32338;50.430;6.806;2022-08-04T07:07:34;96518.94;;;19.43;100.00
46614;BME280;32338;50.430;6.806;2022-08-04T07:10:02;96516.16;;;19.60;100.00
46614;BME280;32338;50.430;6.806;2022-08-04T07:12:30;96515.16;;;19.66;100.00
46614;BME280;32338;50.430;6.806;2022-08-04T07:14:58;96516.25;;;19.70;100.00
46614;BME280;32338;50.430;6.806;2022-08-04T07:17:25;96513.63;;;19.75;100.00
46614;BME280;32338;50.430;6.806;2022-08-04T07:19:52;96511.81;;;19.81;100.00
46614;BME280;32338;50.430;6.806;2022-08-04T07:22:20;96514.16;;;20.00;100.00
46614;BME280;32338;50.430;6.806;2022-08-04T07:24:53;96515.00;;;20.05;100.00
46614;BME280;32338;50.430;6.806;2022-08-04T07:27:20;96516.16;;;20.15;100.00
46614;BME280;32338;50.430;6.806;2022-08-04T07:29:47;96512.81;;;20.30;100.00
46614;BME280;32338;50.430;6.806;2022-08-04T07:32:15;96509.66;;;20.43;100.00
46614;BME280;32338;50.430;6.806;2022-08-04T07:34:42;96515.66;;;20.61;100.00
46614;BME280;32338;50.430;6.806;2022-08-04T07:37:10;96502.69;;;20.85;99.05
46614;BME280;32338;50.430;6.806;2022-08-04T07:39:37;96502.81;;;21.11;98.68
46614;BME280;32338;50.430;6.806;2022-08-04T07:42:05;96506.38;;;21.32;95.06
46614;BME280;32338;50.430;6.806;2022-08-04T07:44:33;96509.19;;;21.58;92.44
46614;BME280;32338;50.430;6.806;2022-08-04T07:47:02;96504.09;;;21.77;91.94
46614;BME280;32338;50.430;6.806;2022-08-04T07:49:29;96508.69;;;21.97;90.74
46614;BME280;32338;50.430;6.806;2022-08-04T07:51:56;96501.44;;;22.18;92.76
46614;BME280;32338;50.430;6.806;2022-08-04T07:54:24;96504.69;;;22.41;89.67
46614;BME280;32338;50.430;6.806;2022-08-04T07:56:52;96501.69;;;22.63;86.60
46614;BME280;32338;50.430;6.806;2022-08-04T07:59:20;96502.19;;;22.80;86.89
46614;BME280;32338;50.430;6.806;2022-08-04T08:01:47;96501.03;;;23.02;81.68
46614;BME280;32338;50.430;6.806;2022-08-04T08:04:15;96504.47;;;23.28;83.27
46614;BME280;32338;50.430;6.806;2022-08-04T08:06:42;96504.59;;;23.58;83.12
46614;BME280;32338;50.430;6.806;2022-08-04T08:09:11;96503.94;;;23.76;74.43
46614;BME280;32338;50.430;6.806;2022-08-04T08:11:38;96502.53;;;23.84;77.87
46614;BME280;32338;50.430;6.806;2022-08-04T08:14:05;96497.13;;;23.84;62.71
46614;BME280;32338;50.430;6.806;2022-08-04T08:16:35;96505.97;;;24.00;59.51
46614;BME280;32338;50.430;6.806;2022-08-04T08:19:03;96507.44;;;24.46;54.87
46614;BME280;32338;50.430;6.806;2022-08-04T08:21:31;96497.47;;;24.76;53.81
46614;BME280;32338;50.430;6.806;2022-08-04T08:23:58;96505.13;;;24.93;53.58
46614;BME280;32338;50.430;6.806;2022-08-04T08:26:26;96512.75;;;25.10;50.68
46614;BME280;32338;50.430;6.806;2022-08-04T08:28:53;96508.38;;;25.38;48.24
46614;BME280;32338;50.430;6.806;2022-08-04T08:31:20;96506.16;;;25.65;48.08
46614;BME280;32338;50.430;6.806;2022-08-04T08:33:51;96510.38;;;25.71;48.75
46614;BME280;32338;50.430;6.806;2022-08-04T08:36:23;96513.97;;;26.04;47.60
46614;BME280;32338;50.430;6.806;2022-08-04T08:38:58;96505.25;;;26.08;49.15
46614;BME280;32338;50.430;6.806;2022-08-04T08:41:50;96505.41;;;26.16;48.22
46614;BME280;32338;50.430;6.806;2022-08-04T08:47:31;96499.66;;;26.37;48.68
46614;BME280;32338;50.430;6.806;2022-08-04T08:50:17;96494.25;;;26.37;46.16
46614;BME280;32338;50.430;6.806;2022-08-04T08:52:57;96502.28;;;26.42;45.98
46614;BME280;32338;50.430;6.806;2022-08-04T08:55:35;96496.97;;;26.51;46.98
46614;BME280;32338;50.430;6.806;2022-08-04T08:58:30;96502.69;;;26.49;48.09
46614;BME280;32338;50.430;6.806;2022-08-04T09:01:06;96488.41;;;27.18;45.40
46614;BME280;32338;50.430;6.806;2022-08-04T09:03:57;96479.53;;;27.27;44.19
46614;BME280;32338;50.430;6.806;2022-08-04T09:06:40;96488.06;;;27.34;43.51
46614;BME280;32338;50.430;6.806;2022-08-04T09:12:06;96476.31;;;27.53;42.57
46614;BME280;32338;50.430;6.806;2022-08-04T09:14:42;96473.09;;;27.50;42.94
46614;BME280;32338;50.430;6.806;2022-08-04T09:17:26;96473.41;;;27.49;44.79
46614;BME280;32338;50.430;6.806;2022-08-04T09:20:00;96475.59;;;27.61;43.79
46614;BME280;32338;50.430;6.806;2022-08-04T09:22:34;96485.09;;;27.72;43.63
46614;BME280;32338;50.430;6.806;2022-08-04T09:25:11;96479.47;;;28.05;44.44
46614;BME280;32338;50.430;6.806;2022-08-04T09:27:45;96487.59;;;28.28;43.10
46614;BME280;32338;50.430;6.806;2022-08-04T09:30:18;96495.63;;;28.33;42.48
46614;BME280;32338;50.430;6.806;2022-08-04T09:33:05;96489.03;;;28.25;41.70
46614;BME280;32338;50.430;6.806;2022-08-04T09:35:45;96495.41;;;28.21;41.54
46614;BME280;32338;50.430;6.806;2022-08-04T09:38:20;96493.94;;;28.00;42.98
46614;BME280;32338;50.430;6.806;2022-08-04T09:40:55;96494.75;;;28.01;40.92
46614;BME280;32338;50.430;6.806;2022-08-04T09:43:34;96493.59;;;27.93;38.84
46614;BME280;32338;50.430;6.806;2022-08-04T09:46:12;96501.41;;;27.95;35.41
46614;BME280;32338;50.430;6.806;2022-08-04T09:48:52;96491.22;;;28.00;36.22
46614;BME280;32338;50.430;6.806;2022-08-04T09:51:35;96489.91;;;27.98;36.65
46614;BME280;32338;50.430;6.806;2022-08-04T09:54:18;96487.09;;;28.03;38.89
46614;BME280;32338;50.430;6.806;2022-08-04T09:56:57;96490.06;;;28.15;37.08
46614;BME280;32338;50.430;6.806;2022-08-04T09:59:33;96494.41;;;28.17;36.02
46614;BME280;32338;50.430;6.806;2022-08-04T10:02:14;96494.66;;;28.29;36.70
46614;BME280;32338;50.430;6.806;2022-08-04T10:04:44;96496.22;;;28.53;36.52
46614;BME280;32338;50.430;6.806;2022-08-04T10:07:27;96490.59;;;28.72;34.97
46614;BME280;32338;50.430;6.806;2022-08-04T10:10:20;96484.84;;;28.73;35.88
46614;BME280;32338;50.430;6.806;2022-08-04T10:13:25;96491.50;;;28.99;37.66
46614;BME280;32338;50.430;6.806;2022-08-04T10:16:06;96493.28;;;29.12;37.13
46614;BME280;32338;50.430;6.806;2022-08-04T10:18:47;96492.25;;;29.31;34.89
46614;BME280;32338;50.430;6.806;2022-08-04T10:21:23;96494.88;;;29.13;34.54
46614;BME280;32338;50.430;6.806;2022-08-04T10:24:05;96496.28;;;29.02;33.62
46614;BME280;32338;50.430;6.806;2022-08-04T10:26:52;96505.28;;;29.02;35.43
46614;BME280;32338;50.430;6.806;2022-08-04T10:29:26;96508.00;;;29.02;35.17
46614;BME280;32338;50.430;6.806;2022-08-04T10:32:03;96498.22;;;29.01;34.30
46614;BME280;32338;50.430;6.806;2022-08-04T10:34:41;96497.59;;;29.04;34.23
46614;BME280;32338;50.430;6.806;2022-08-04T10:37:20;96499.69;;;29.07;34.10
46614;BME280;32338;50.430;6.806;2022-08-04T10:39:54;96491.06;;;29.14;33.52
46614;BME280;32338;50.430;6.806;2022-08-04T10:42:48;96492.56;;;29.29;32.71
46614;BME280;32338;50.430;6.806;2022-08-04T10:45:51;96494.66;;;29.32;31.64
46614;BME280;32338;50.430;6.806;2022-08-04T10:48:42;96491.94;;;29.32;31.00
46614;BME280;32338;50.430;6.806;2022-08-04T10:51:18;96495.56;;;29.19;31.83
46614;BME280;32338;50.430;6.806;2022-08-04T10:53:50;96495.91;;;29.26;30.95
46614;BME280;32338;50.430;6.806;2022-08-04T10:56:26;96489.31;;;29.27;31.14
46614;BME280;32338;50.430;6.806;2022-08-04T10:59:03;96494.13;;;29.21;30.31
46614;BME280;32338;50.430;6.806;2022-08-04T11:01:35;96490.81;;;29.33;30.60
46614;BME280;32338;50.430;6.806;2022-08-04T11:04:11;96496.25;;;29.33;30.88
46614;BME280;32338;50.430;6.806;2022-08-04T11:06:42;96486.53;;;29.41;31.27
46614;BME280;32338;50.430;6.806;2022-08-04T11:09:11;96483.16;;;29.44;31.38
46614;BME280;32338;50.430;6.806;2022-08-04T11:11:42;96476.28;;;29.47;31.77
46614;BME280;32338;50.430;6.806;2022-08-04T11:14:14;96474.50;;;29.68;35.65
46614;BME280;32338;50.430;6.806;2022-08-04T11:16:46;96479.00;;;29.82;33.39
46614;BME280;32338;50.430;6.806;2022-08-04T11:19:31;96473.25;;;30.01;29.60
46614;BME280;32338;50.430;6.806;2022-08-04T11:22:04;96477.72;;;30.23;29.25
46614;BME280;32338;50.430;6.806;2022-08-04T11:24:36;96483.16;;;30.23;27.75
46614;BME280;32338;50.430;6.806;2022-08-04T11:27:13;96486.56;;;30.20;28.70
46614;BME280;32338;50.430;6.806;2022-08-04T11:29:53;96477.88;;;30.18;28.63
46614;BME280;32338;50.430;6.806;2022-08-04T11:32:25;96474.22;;;30.05;29.05
46614;BME280;32338;50.430;6.806;2022-08-04T11:35:01;96477.91;;;30.00;29.09
46614;BME280;32338;50.430;6.806;2022-08-04T11:37:35;96475.03;;;29.97;29.59
46614;BME280;32338;50.430;6.806;2022-08-04T11:40:12;96487.53;;;29.89;30.63
46614;BME280;32338;50.430;6.806;2022-08-04T11:42:47;96490.25;;;29.89;28.99
46614;BME280;32338;50.430;6.806;2022-08-04T11:45:24;96490.06;;;29.85;30.57
46614;BME280;32338;50.430;6.806;2022-08-04T11:47:57;96492.31;;;29.92;31.24
46614;BME280;32338;50.430;6.806;2022-08-04T11:50:30;96504.50;;;29.95;31.64
46614;BME280;32338;50.430;6.806;2022-08-04T11:52:58;96501.47;;;29.96;33.28
46614;BME280;32338;50.430;6.806;2022-08-04T11:55:27;96501.31;;;29.92;32.72
46614;BME280;32338;50.430;6.806;2022-08-04T11:57:54;96507.06;;;29.91;34.28
46614;BME280;32338;50.430;6.806;2022-08-04T12:00:25;96494.06;;;29.88;34.62
46614;BME280;32338;50.430;6.806;2022-08-04T12:03:17;96496.28;;;29.77;33.62
46614;BME280;32338;50.430;6.806;2022-08-04T12:05:51;96481.88;;;29.68;35.40
46614;BME280;32338;50.430;6.806;2022-08-04T12:08:28;96480.94;;;29.55;36.31
46614;BME280;32338;50.430;6.806;2022-08-04T12:11:08;96480.59;;;29.48;36.22
46614;BME280;32338;50.430;6.806;2022-08-04T12:13:48;96484.41;;;29.38;37.41
46614;BME280;32338;50.430;6.806;2022-08-04T12:16:21;96476.72;;;29.31;36.80
46614;BME280;32338;50.430;6.806;2022-08-04T12:18:53;96483.09;;;29.26;37.57
46614;BME280;32338;50.430;6.806;2022-08-04T12:21:27;96472.50;;;29.16;38.15
46614;BME280;32338;50.430;6.806;2022-08-04T12:23:59;96469.13;;;29.10;38.39
46614;BME280;32338;50.430;6.806;2022-08-04T12:26:31;96464.94;;;29.04;38.81
46614;BME280;32338;50.430;6.806;2022-08-04T12:29:00;96458.56;;;29.09;38.57
46614;BME280;32338;50.430;6.806;2022-08-04T12:31:35;96467.06;;;29.16;36.90
46614;BME280;32338;50.430;6.806;2022-08-04T12:34:08;96480.03;;;29.19;37.54
46614;BME280;32338;50.430;6.806;2022-08-04T12:39:26;96485.38;;;29.42;38.96
46614;BME280;32338;50.430;6.806;2022-08-04T12:42:01;96485.56;;;29.54;39.99
46614;BME280;32338;50.430;6.806;2022-08-04T12:44:33;96478.22;;;29.55;34.34
46614;BME280;32338;50.430;6.806;2022-08-04T12:47:04;96472.94;;;29.67;39.38
46614;BME280;32338;50.430;6.806;2022-08-04T12:49:38;96481.25;;;29.71;38.13
46614;BME280;32338;50.430;6.806;2022-08-04T12:52:07;96472.94;;;29.76;36.64
46614;BME280;32338;50.430;6.806;2022-08-04T12:54:35;96477.41;;;29.81;36.01
46614;BME280;32338;50.430;6.806;2022-08-04T12:57:04;96474.69;;;29.89;36.01
46614;BME280;32338;50.430;6.806;2022-08-04T12:59:37;96476.47;;;29.94;36.91
46614;BME280;32338;50.430;6.806;2022-08-04T13:02:12;96483.53;;;30.04;36.45
46614;BME280;32338;50.430;6.806;2022-08-04T13:04:44;96495.19;;;30.22;35.62
46614;BME280;32338;50.430;6.806;2022-08-04T13:07:14;96487.31;;;30.29;36.99
46614;BME280;32338;50.430;6.806;2022-08-04T13:09:41;96495.31;;;30.43;36.19
46614;BME280;32338;50.430;6.806;2022-08-04T13:12:12;96497.34;;;30.72;36.13
46614;BME280;32338;50.430;6.806;2022-08-04T13:14:40;96491.25;;;31.05;38.85
46614;BME280;32338;50.430;6.806;2022-08-04T13:17:11;96493.09;;;31.31;39.42
46614;BME280;32338;50.430;6.806;2022-08-04T13:19:38;96498.94;;;31.12;38.47
46614;BME280;32338;50.430;6.806;2022-08-04T13:22:12;96491.75;;;31.37;40.25
46614;BME280;32338;50.430;6.806;2022-08-04T13:24:41;96486.59;;;31.87;38.67
46614;BME280;32338;50.430;6.806;2022-08-04T13:27:10;96491.34;;;31.78;37.93
46614;BME280;32338;50.430;6.806;2022-08-04T13:29:43;96477.38;;;32.46;38.15
46614;BME280;32338;50.430;6.806;2022-08-04T13:32:15;96480.47;;;32.57;37.80
46614;BME280;32338;50.430;6.806;2022-08-04T13:34:46;96480.34;;;32.54;36.65
46614;BME280;32338;50.430;6.806;2022-08-04T13:37:14;96477.09;;;32.73;36.23
46614;BME280;32338;50.430;6.806;2022-08-04T13:39:43;96473.63;;;32.51;34.47
46614;BME280;32338;50.430;6.806;2022-08-04T13:42:12;96479.63;;;33.27;36.11
46614;BME280;32338;50.430;6.806;2022-08-04T13:44:43;96487.06;;;33.14;32.82
46614;BME280;32338;50.430;6.806;2022-08-04T13:47:18;96479.31;;;32.92;32.78
46614;BME280;32338;50.430;6.806;2022-08-04T13:50:10;96472.88;;;33.25;33.49
46614;BME280;32338;50.430;6.806;2022-08-04T13:52:38;96469.59;;;33.19;33.94
46614;BME280;32338;50.430;6.806;2022-08-04T13:55:05;96466.25;;;32.52;32.91
46614;BME280;32338;50.430;6.806;2022-08-04T13:57:41;96468.34;;;33.04;32.19
46614;BME280;32338;50.430;6.806;2022-08-04T14:00:09;96480.59;;;32.61;32.02
46614;BME280;32338;50.430;6.806;2022-08-04T14:02:40;96467.72;;;32.49;33.76
46614;BME280;32338;50.430;6.806;2022-08-04T14:05:13;96463.69;;;32.46;32.62
46614;BME280;32338;50.430;6.806;2022-08-04T14:07:44;96463.94;;;32.08;33.78
46614;BME280;32338;50.430;6.806;2022-08-04T14:10:12;96455.44;;;31.88;36.37
46614;BME280;32338;50.430;6.806;2022-08-04T14:12:44;96450.75;;;31.89;37.21
46614;BME280;32338;50.430;6.806;2022-08-04T14:15:32;96455.69;;;31.95;37.63